createdAt,value
2023-03-01T00:00:15.538Z,1.88
2023-03-01T00:03:05.469Z,1.88
2023-03-01T00:05:55.547Z,1.87
2023-03-01T00:08:45.931Z,1.94
2023-03-01T00:11:38.245Z,1.94
2023-03-01T00:14:28.347Z,1.87
2023-03-01T00:17:18.437Z,1.79
2023-03-01T00:20:11.391Z,1.83
2023-03-01T00:23:01.949Z,1.87
2023-03-01T00:25:54.060Z,1.83
2023-03-01T00:28:45.518Z,1.79
2023-03-01T00:31:35.946Z,1.80
2023-03-01T00:34:25.732Z,1.77
2023-03-01T00:37:15.535Z,1.77
2023-03-01T00:40:07.564Z,1.77
2023-03-01T00:42:58.011Z,1.79
2023-03-01T00:45:51.329Z,1.76
2023-03-01T00:48:43.829Z,1.73
2023-03-01T00:51:34.336Z,1.72
2023-03-01T00:54:24.151Z,1.68
2023-03-01T00:57:14.528Z,1.68
2023-03-01T01:00:05.541Z,1.73
2023-03-01T01:02:56.961Z,1.71
2023-03-01T01:05:47.028Z,1.68
2023-03-01T01:08:37.140Z,1.72
2023-03-01T01:11:30.411Z,1.63
2023-03-01T01:14:20.490Z,1.59
2023-03-01T01:17:10.633Z,1.64
2023-03-01T01:20:01.692Z,1.58
2023-03-01T01:22:52.615Z,1.53
2023-03-01T01:25:42.890Z,1.48
2023-03-01T01:28:32.592Z,1.48
2023-03-01T01:31:25.008Z,1.46
2023-03-01T01:34:17.886Z,1.42
2023-03-01T01:37:09.406Z,1.45
2023-03-01T01:39:58.978Z,1.39
2023-03-01T01:42:49.370Z,1.33
2023-03-01T01:45:39.994Z,1.36
2023-03-01T01:48:41.740Z,1.33
2023-03-01T01:51:39.843Z,1.25
2023-03-01T01:54:34.294Z,1.14
2023-03-01T01:57:26.637Z,1.08
2023-03-01T02:00:19.921Z,1.07
2023-03-01T02:03:13.821Z,1.03
2023-03-01T02:06:07.171Z,0.99
2023-03-01T02:09:00.957Z,1.02
2023-03-01T02:11:54.174Z,0.96
2023-03-01T02:14:44.852Z,0.90
2023-03-01T02:17:35.830Z,0.73
2023-03-01T02:20:31.623Z,0.75
2023-03-01T02:23:22.030Z,0.84
2023-03-01T02:26:19.069Z,0.88
2023-03-01T02:29:10.894Z,0.85
2023-03-01T02:32:03.140Z,0.68
2023-03-01T02:34:55.629Z,0.66
2023-03-01T02:37:45.981Z,0.56
2023-03-01T02:40:37.541Z,0.58
2023-03-01T02:43:30.884Z,0.58
2023-03-01T02:46:25.219Z,0.41
2023-03-01T02:49:25.377Z,0.44
2023-03-01T02:52:24.747Z,0.49
2023-03-01T02:55:16.134Z,0.50
2023-03-01T02:58:07.426Z,0.48
2023-03-01T03:00:58.985Z,0.46
2023-03-01T03:03:51.112Z,0.50
2023-03-01T03:06:42.811Z,0.51
2023-03-01T03:09:32.734Z,0.44
2023-03-01T03:12:22.891Z,0.50
2023-03-01T03:15:16.102Z,0.58
2023-03-01T03:18:11.171Z,0.46
2023-03-01T03:21:03.233Z,0.56
2023-03-01T03:23:54.400Z,0.49
2023-03-01T03:26:44.382Z,0.50
2023-03-01T03:29:37.965Z,0.47
2023-03-01T03:32:28.492Z,0.42
2023-03-01T03:35:18.986Z,0.46
2023-03-01T03:38:18.168Z,0.45
2023-03-01T03:41:10.024Z,0.47
2023-03-01T03:44:04.284Z,0.47
2023-03-01T03:46:54.407Z,0.45
2023-03-01T03:49:47.512Z,0.44
2023-03-01T03:52:37.405Z,0.45
2023-03-01T03:55:31.906Z,0.33
2023-03-01T03:58:23.631Z,0.32
2023-03-01T04:01:14.337Z,0.32
2023-03-01T04:04:05.493Z,0.22
2023-03-01T04:11:30.380Z,0.16
2023-03-01T04:14:20.568Z,0.17
2023-03-01T04:17:10.678Z,0.18
2023-03-01T04:20:10.273Z,0.18
2023-03-01T04:23:01.484Z,0.17
2023-03-01T04:25:55.470Z,0.08
2023-03-01T04:28:50.379Z,0.08
2023-03-01T04:31:40.907Z,0.12
2023-03-01T04:34:31.367Z,0.09
2023-03-01T04:37:21.665Z,0.08
2023-03-01T04:40:17.594Z,0.03
2023-03-01T04:43:08.097Z,-0.02
2023-03-01T04:46:04.259Z,-0.13
2023-03-01T04:48:54.705Z,-0.12
2023-03-01T04:51:45.644Z,-0.17
2023-03-01T04:54:37.047Z,-0.17
2023-03-01T04:57:27.856Z,-0.20
2023-03-01T05:00:22.440Z,-0.19
2023-03-01T05:03:19.702Z,-0.23
2023-03-01T05:06:10.704Z,-0.25
2023-03-01T05:09:01.106Z,-0.31
2023-03-01T05:11:53.139Z,-0.30
2023-03-01T05:14:43.330Z,-0.39
2023-03-01T05:17:33.324Z,-0.41
2023-03-01T05:20:26.243Z,-0.43
2023-03-01T05:23:16.571Z,-0.34
2023-03-01T05:26:16.286Z,-0.32
2023-03-01T05:29:16.299Z,-0.41
2023-03-01T05:32:06.959Z,-0.48
2023-03-01T05:34:57.513Z,-0.57
2023-03-01T05:37:50.061Z,-0.52
2023-03-01T05:40:39.724Z,-0.46
2023-03-01T05:43:30.480Z,-0.52
2023-03-01T05:46:21.279Z,-0.67
2023-03-01T05:49:11.329Z,-0.64
2023-03-01T05:52:01.313Z,-0.70
2023-03-01T05:54:53.138Z,-0.75
2023-03-01T05:57:43.803Z,-0.75
2023-03-01T06:00:34.663Z,-0.73
2023-03-01T06:03:24.538Z,-0.80
2023-03-01T06:06:15.023Z,-0.84
2023-03-01T06:09:05.010Z,-0.83
2023-03-01T06:11:56.132Z,-0.77
2023-03-01T06:14:46.665Z,-0.78
2023-03-01T06:17:38.538Z,-0.73
2023-03-01T06:20:29.779Z,-0.76
2023-03-01T06:23:19.873Z,-0.76
2023-03-01T06:26:11.415Z,-0.78
2023-03-01T06:29:03.120Z,-0.71
2023-03-01T06:31:53.339Z,-0.73
2023-03-01T06:34:43.184Z,-0.75
2023-03-01T06:37:33.186Z,-0.74
2023-03-01T06:40:23.343Z,-0.77
2023-03-01T06:43:14.312Z,-0.67
2023-03-01T06:46:08.844Z,-0.69
2023-03-01T06:49:02.186Z,-0.63
2023-03-01T06:51:52.657Z,-0.70
2023-03-01T06:54:42.320Z,-0.66
2023-03-01T06:57:32.512Z,-0.59
2023-03-01T07:00:23.472Z,-0.55
2023-03-01T07:03:14.620Z,-0.56
2023-03-01T07:06:04.814Z,-0.52
2023-03-01T07:08:54.705Z,-0.48
2023-03-01T07:11:44.699Z,-0.43
2023-03-01T07:14:34.880Z,-0.41
2023-03-01T07:17:25.186Z,-0.38
2023-03-01T07:20:17.162Z,-0.28
2023-03-01T07:23:14.151Z,-0.28
2023-03-01T07:26:04.676Z,-0.29
2023-03-01T07:28:54.623Z,-0.22
2023-03-01T07:31:44.954Z,-0.21
2023-03-01T07:34:38.487Z,-0.12
2023-03-01T07:37:29.782Z,-0.08
2023-03-01T07:40:24.931Z,-0.01
2023-03-01T07:43:14.986Z,0.07
2023-03-01T07:46:17.512Z,0.12
2023-03-01T07:49:09.961Z,0.14
2023-03-01T07:52:06.060Z,0.21
2023-03-01T07:54:58.134Z,0.29
2023-03-01T07:57:48.116Z,0.35
2023-03-01T08:00:37.803Z,0.41
2023-03-01T08:03:27.551Z,0.46
2023-03-01T08:06:19.224Z,0.51
2023-03-01T08:09:09.710Z,0.56
2023-03-01T08:12:01.754Z,0.64
2023-03-01T08:14:51.898Z,0.69
2023-03-01T08:17:41.256Z,0.76
2023-03-01T08:20:30.638Z,0.81
2023-03-01T08:23:19.855Z,0.86
2023-03-01T08:26:11.844Z,0.94
2023-03-01T08:29:04.020Z,0.97
2023-03-01T08:32:11.831Z,1.08
2023-03-01T08:35:02.257Z,1.08
2023-03-01T08:37:52.503Z,1.12
2023-03-01T08:40:42.874Z,1.22
2023-03-01T08:43:33.264Z,1.32
2023-03-01T08:46:24.920Z,1.35
2023-03-01T08:49:16.844Z,1.22
2023-03-01T08:52:07.352Z,1.28
2023-03-01T08:54:57.297Z,1.37
2023-03-01T08:57:50.382Z,1.46
2023-03-01T09:00:41.460Z,1.66
2023-03-01T09:03:32.907Z,1.69
2023-03-01T09:06:23.197Z,1.69
2023-03-01T09:09:17.465Z,1.79
2023-03-01T09:12:10.125Z,1.76
2023-03-01T09:14:59.815Z,1.86
2023-03-01T09:17:49.804Z,1.98
2023-03-01T09:20:41.120Z,2.15
2023-03-01T09:23:30.794Z,2.22
2023-03-01T09:26:23.140Z,2.15
2023-03-01T09:29:13.032Z,2.31
2023-03-01T09:32:03.307Z,2.36
2023-03-01T09:35:06.224Z,2.45
2023-03-01T09:37:57.160Z,2.47
2023-03-01T09:40:48.120Z,2.45
2023-03-01T09:43:47.447Z,2.55
2023-03-01T09:47:01.988Z,2.54
2023-03-01T09:49:59.769Z,2.58
2023-03-01T09:52:52.306Z,2.64
2023-03-01T09:55:46.389Z,2.65
2023-03-01T09:58:44.375Z,2.67
2023-03-01T10:01:37.730Z,2.76
2023-03-01T10:04:37.805Z,2.85
2023-03-01T10:07:35.309Z,2.97
2023-03-01T10:10:34.640Z,2.96
2023-03-01T10:13:29.929Z,2.97
2023-03-01T10:16:22.794Z,3.00
2023-03-01T10:19:24.984Z,3.13
2023-03-01T10:22:22.854Z,3.20
2023-03-01T10:25:15.835Z,3.14
2023-03-01T10:28:09.988Z,3.18
2023-03-01T10:31:07.734Z,3.28
2023-03-01T10:33:59.982Z,3.36
2023-03-01T10:36:52.336Z,3.31
2023-03-01T10:39:57.471Z,3.34
2023-03-01T10:42:50.830Z,3.31
2023-03-01T10:45:42.229Z,3.31
2023-03-01T10:48:33.945Z,3.44
2023-03-01T10:51:24.787Z,3.52
2023-03-01T10:54:20.396Z,3.55
2023-03-01T10:57:30.868Z,3.66
2023-03-01T11:00:24.657Z,3.76
2023-03-01T11:03:17.697Z,3.91
2023-03-01T11:06:23.267Z,3.97
2023-03-01T11:09:19.053Z,4.02
2023-03-01T11:12:17.284Z,4.09
2023-03-01T11:15:07.996Z,4.13
2023-03-01T11:18:09.299Z,4.14
2023-03-01T11:21:04.995Z,4.34
2023-03-01T11:23:57.362Z,4.44
2023-03-01T11:26:50.522Z,4.49
2023-03-01T11:29:48.804Z,4.56
2023-03-01T11:32:44.019Z,4.64
2023-03-01T11:35:36.888Z,4.70
2023-03-01T11:38:28.703Z,4.80
2023-03-01T11:41:23.193Z,4.84
2023-03-01T11:44:16.970Z,5.02
2023-03-01T11:47:36.327Z,4.94
2023-03-01T11:50:33.507Z,4.86
2023-03-01T11:53:40.397Z,4.88
2023-03-01T11:56:35.491Z,5.09
2023-03-01T11:59:48.485Z,5.16
2023-03-01T12:03:10.303Z,5.21
2023-03-01T12:06:32.364Z,5.33
2023-03-01T12:09:37.235Z,5.40
2023-03-01T12:12:49.813Z,5.49
2023-03-01T12:15:49.928Z,5.57
2023-03-01T12:19:10.067Z,5.60
2023-03-01T12:22:24.120Z,5.67
2023-03-01T12:25:19.314Z,5.79
2023-03-01T12:28:31.690Z,5.93
2023-03-01T12:31:39.216Z,6.05
2023-03-01T12:34:45.713Z,6.03
2023-03-01T12:37:43.058Z,6.13
2023-03-01T12:40:49.479Z,6.12
2023-03-01T12:43:53.631Z,6.19
2023-03-01T12:47:04.896Z,6.26
2023-03-01T12:49:57.640Z,6.32
2023-03-01T12:52:50.222Z,6.31
2023-03-01T12:55:42.581Z,6.38
2023-03-01T12:58:48.694Z,6.41
2023-03-01T13:01:44.978Z,6.41
2023-03-01T13:04:55.536Z,6.45
2023-03-01T13:07:53.427Z,6.61
2023-03-01T13:10:49.643Z,6.69
2023-03-01T13:13:40.128Z,6.80
2023-03-01T13:16:46.459Z,6.92
2023-03-01T13:19:37.314Z,6.88
2023-03-01T13:22:32.722Z,6.91
2023-03-01T13:25:25.710Z,7.08
2023-03-01T13:28:44.356Z,6.99
2023-03-01T13:32:06.087Z,6.89
2023-03-01T13:35:00.900Z,6.92
2023-03-01T13:37:50.460Z,6.82
2023-03-01T13:41:01.635Z,6.94
2023-03-01T13:43:51.120Z,6.91
2023-03-01T13:46:41.034Z,7.01
2023-03-01T13:49:55.630Z,7.15
2023-03-01T13:52:51.818Z,7.13
2023-03-01T13:55:45.975Z,7.27
2023-03-01T13:58:36.980Z,7.35
2023-03-01T14:01:29.463Z,7.37
2023-03-01T14:04:23.523Z,7.47
2023-03-01T14:07:19.610Z,7.60
2023-03-01T14:10:10.788Z,7.64
2023-03-01T14:13:15.622Z,7.64
2023-03-01T14:16:24.800Z,7.63
2023-03-01T14:19:32.053Z,7.78
2023-03-01T14:22:26.002Z,7.83
2023-03-01T14:25:27.109Z,7.89
2023-03-01T14:28:19.128Z,7.88
2023-03-01T14:31:41.097Z,7.99
2023-03-01T14:34:37.889Z,8.08
2023-03-01T14:37:30.776Z,8.25
2023-03-01T14:40:36.617Z,8.34
2023-03-01T14:43:27.080Z,8.65
2023-03-01T14:46:22.460Z,8.89
2023-03-01T14:49:14.615Z,9.05
2023-03-01T14:52:06.264Z,9.36
2023-03-01T14:54:58.020Z,9.43
2023-03-01T14:57:49.462Z,9.64
2023-03-01T15:00:38.714Z,9.98
2023-03-01T15:03:32.818Z,10.77
2023-03-01T15:06:26.169Z,11.38
2023-03-01T15:09:18.032Z,11.78
2023-03-01T15:12:42.181Z,11.60
2023-03-01T15:15:38.669Z,11.29
2023-03-01T15:18:29.586Z,11.43
2023-03-01T15:21:20.481Z,11.92
2023-03-01T15:24:21.496Z,12.01
2023-03-01T15:27:17.024Z,12.06
2023-03-01T15:30:06.916Z,11.81
2023-03-01T15:33:32.576Z,12.20
2023-03-01T15:36:35.089Z,11.60
2023-03-01T15:39:38.521Z,11.34
2023-03-01T15:42:40.826Z,11.28
2023-03-01T15:45:31.262Z,11.11
2023-03-01T15:48:21.950Z,11.23
2023-03-01T15:51:15.381Z,10.85
2023-03-01T15:54:11.326Z,10.77
2023-03-01T15:57:01.227Z,10.67
2023-03-01T15:59:50.936Z,10.47
2023-03-01T16:02:40.760Z,9.97
2023-03-01T16:05:32.904Z,9.84
2023-03-01T16:08:24.676Z,9.77
2023-03-01T16:11:18.355Z,9.60
2023-03-01T16:14:07.637Z,9.33
2023-03-01T16:16:57.210Z,9.05
2023-03-01T16:19:46.368Z,8.90
2023-03-01T16:22:35.586Z,8.94
2023-03-01T16:25:26.845Z,8.56
2023-03-01T16:28:15.880Z,8.48
2023-03-01T16:31:05.759Z,8.42
2023-03-01T16:33:55.585Z,8.46
2023-03-01T16:36:45.173Z,8.39
2023-03-01T16:39:34.545Z,8.23
2023-03-01T16:42:24.840Z,8.26
2023-03-01T16:45:23.847Z,8.08
2023-03-01T16:48:13.731Z,7.73
2023-03-01T16:51:04.103Z,7.59
2023-03-01T16:53:53.832Z,7.64
2023-03-01T16:56:43.094Z,7.63
2023-03-01T16:59:33.745Z,7.50
2023-03-01T17:02:22.707Z,7.53
2023-03-01T17:05:13.042Z,7.45
2023-03-01T17:08:02.392Z,7.28
2023-03-01T17:10:52.119Z,7.07
2023-03-01T17:13:42.322Z,6.80
2023-03-01T17:16:33.760Z,6.95
2023-03-01T17:19:23.677Z,6.89
2023-03-01T17:22:14.309Z,6.83
2023-03-01T17:25:03.957Z,6.87
2023-03-01T17:27:53.557Z,6.78
2023-03-01T17:30:45.483Z,6.57
2023-03-01T17:33:38.991Z,6.62
2023-03-01T17:36:28.756Z,6.46
2023-03-01T17:39:20.866Z,6.39
2023-03-01T17:42:10.658Z,6.39
2023-03-01T17:45:00.969Z,6.44
2023-03-01T17:47:50.865Z,6.48
2023-03-01T17:50:42.005Z,6.47
2023-03-01T17:53:31.231Z,6.41
2023-03-01T17:56:20.672Z,6.29
2023-03-01T17:59:10.429Z,6.31
2023-03-01T18:02:01.907Z,6.27
2023-03-01T18:04:52.069Z,6.24
2023-03-01T18:07:43.251Z,6.11
2023-03-01T18:10:33.512Z,6.11
2023-03-01T18:13:23.447Z,6.05
2023-03-01T18:16:15.302Z,6.05
2023-03-01T18:19:05.548Z,5.95
2023-03-01T18:21:56.324Z,5.91
2023-03-01T18:24:47.291Z,5.75
2023-03-01T18:27:37.263Z,5.55
2023-03-01T18:30:27.270Z,5.53
2023-03-01T18:33:16.977Z,5.53
2023-03-01T18:36:07.604Z,5.42
2023-03-01T18:38:58.192Z,5.37
2023-03-01T18:41:49.427Z,5.30
2023-03-01T18:44:39.334Z,5.23
2023-03-01T18:47:28.606Z,5.17
2023-03-01T18:50:21.745Z,5.12
2023-03-01T18:53:12.806Z,5.18
2023-03-01T18:56:02.845Z,5.07
2023-03-01T18:58:54.067Z,5.09
2023-03-01T19:01:44.083Z,5.07
2023-03-01T19:04:34.031Z,4.98
2023-03-01T19:07:24.423Z,4.91
2023-03-01T19:10:14.682Z,4.87
2023-03-01T19:13:03.766Z,4.80
2023-03-01T19:15:54.896Z,4.79
2023-03-01T19:18:50.405Z,4.68
2023-03-01T19:21:40.180Z,4.64
2023-03-01T19:24:30.566Z,4.59
2023-03-01T19:27:19.803Z,4.51
2023-03-01T19:30:10.955Z,4.54
2023-03-01T19:33:01.900Z,4.50
2023-03-01T19:35:51.671Z,4.49
2023-03-01T19:38:43.227Z,4.48
2023-03-01T19:41:33.606Z,4.41
2023-03-01T19:44:25.256Z,4.39
2023-03-01T19:47:15.274Z,4.37
2023-03-01T19:50:07.105Z,4.36
2023-03-01T19:52:56.636Z,4.31
2023-03-01T19:55:46.625Z,4.24
2023-03-01T19:58:36.760Z,4.22
2023-03-01T20:01:28.414Z,4.22
2023-03-01T20:04:18.060Z,4.16
2023-03-01T20:07:08.829Z,4.16
2023-03-01T20:09:58.369Z,4.10
2023-03-01T20:12:48.285Z,3.98
2023-03-01T20:15:38.943Z,3.94
2023-03-01T20:18:28.774Z,3.91
2023-03-01T20:21:24.475Z,3.92
2023-03-01T20:24:15.899Z,3.87
2023-03-01T20:27:05.896Z,3.92
2023-03-01T20:29:55.832Z,3.94
2023-03-01T20:32:45.805Z,3.90
2023-03-01T20:35:36.429Z,3.91
2023-03-01T20:38:27.852Z,3.82
2023-03-01T20:41:20.094Z,3.84
2023-03-01T20:44:10.470Z,3.78
2023-03-01T20:47:00.578Z,3.77
2023-03-01T20:49:52.701Z,3.68
2023-03-01T20:52:47.560Z,3.71
2023-03-01T20:55:37.919Z,3.69
2023-03-01T20:58:33.105Z,3.68
2023-03-01T21:01:30.069Z,3.65
2023-03-01T21:04:23.286Z,3.55
2023-03-01T21:07:13.356Z,3.56
2023-03-01T21:10:03.306Z,3.55
2023-03-01T21:12:53.706Z,3.49
2023-03-01T21:15:45.206Z,3.54
2023-03-01T21:18:37.320Z,3.46
2023-03-01T21:21:30.199Z,3.45
2023-03-01T21:24:20.187Z,3.41
2023-03-01T21:27:10.340Z,3.33
2023-03-01T21:30:00.156Z,3.19
2023-03-01T21:32:51.264Z,3.18
2023-03-01T21:35:41.218Z,3.17
2023-03-01T21:38:35.634Z,3.17
2023-03-01T21:41:27.968Z,3.10
2023-03-01T21:44:17.857Z,3.09
2023-03-01T21:47:07.302Z,3.07
2023-03-01T21:49:58.264Z,3.01
2023-03-01T21:52:47.944Z,2.99
2023-03-01T21:55:38.022Z,2.96
2023-03-01T21:58:29.326Z,2.87
2023-03-01T22:01:21.943Z,2.88
2023-03-01T22:04:16.494Z,2.93
2023-03-01T22:07:07.492Z,2.86
2023-03-01T22:09:57.152Z,2.75
2023-03-01T22:12:46.948Z,2.76
2023-03-01T22:15:36.836Z,2.68
2023-03-01T22:18:26.612Z,2.72
2023-03-01T22:21:16.920Z,2.68
2023-03-01T22:24:09.027Z,2.64
2023-03-01T22:26:59.834Z,2.61
2023-03-01T22:29:49.536Z,2.63
2023-03-01T22:32:40.447Z,2.61
2023-03-01T22:35:30.619Z,2.54
2023-03-01T22:38:21.041Z,2.52
2023-03-01T22:41:13.118Z,2.48
2023-03-01T22:44:03.287Z,2.47
2023-03-01T22:46:53.774Z,2.50
2023-03-01T22:49:45.075Z,2.50
2023-03-01T22:52:35.280Z,2.53
2023-03-01T22:55:25.257Z,2.51
2023-03-01T22:58:16.572Z,2.50
2023-03-01T23:01:12.347Z,2.44
2023-03-01T23:04:02.758Z,2.46
2023-03-01T23:06:54.512Z,2.46
2023-03-01T23:09:45.636Z,2.47
2023-03-01T23:12:36.030Z,2.46
2023-03-01T23:15:27.140Z,2.46
2023-03-01T23:18:16.838Z,2.42
2023-03-01T23:21:13.156Z,2.45
2023-03-01T23:24:03.094Z,2.31
2023-03-01T23:26:54.988Z,2.32
2023-03-01T23:29:44.976Z,2.24
2023-03-01T23:32:40.619Z,2.26
2023-03-01T23:35:30.591Z,2.21
2023-03-01T23:38:20.998Z,2.26
2023-03-01T23:41:11.152Z,2.29
2023-03-01T23:44:02.666Z,2.25
2023-03-01T23:46:52.531Z,2.29
2023-03-01T23:49:44.064Z,2.14
2023-03-01T23:52:39.875Z,2.18
2023-03-01T23:55:30.295Z,2.17
2023-03-01T23:58:28.784Z,2.09
